Αρχική σελίδα
METAR-TAF:

METAR-TAF

Αεροδρόμια :

Altamira, Παρά, Βραζιλία

γεωγραφικό πλάτος: 03-12S, γεωγραφικό μήκος: 052-12W, υψόμετρο: 74 μ

Παρών καιρός

Η αναφορά έγινε 1 ώρα και 1 λεπτά πριν, στις 17:00 UTC
Άνεμος 5 kt από Α
Θερμοκρασία 31°C
Υγρασία 71%
Πίεση 1013 hPa
Ορατότητα 10 χλμ και άνω
Αρκετά νέφη σε ύψος 3000 πόδια

METAR: SBHT 151700Z 10005KT 9999 BKN030 31/25 Q1013

Χρόνος: 15:01 (18:01 UTC)


TAF: λείπει

Μετεωρολογικές αναφορές και προγνώσεις για περισσότερα από 4000 αεροδρόμια (δελτία METAR και TAF).

Οι διαθέσιμοι σταθμοί απεικονίζονται στο χάρτη με κίτρινες και κόκκινες κουκκίδες.

Μετακινήστε το ποντίκι πάνω από τις κουκκίδες για να δείτε το όνομα του σταθμού.

Στη συνέχεια, κάντε κλικ για να δείτε τις μετεωρολογικές αναφορές και τις προγνώσεις καιρού.

Για να αλλάξετε το χάρτη: κάντε κλικ στα πράσινα κουμπιά με τον μαύρο σταυρό για να ζουμάρετε, στο πράσινο κουμπί με την παύλα για να αφαιρέσετε το ζουμ ή στα πράσινα βέλη για να αντιπαραβάλλετε χάρτες.


METAR-TAF: